createdAt,value
2017-10-18T00:02:22.892Z,23.53
2017-10-18T00:04:51.154Z,24.93
2017-10-18T00:07:20.196Z,21.07
2017-10-18T00:09:48.451Z,21.83
2017-10-18T00:12:16.916Z,23.40
2017-10-18T00:14:45.186Z,23.53
2017-10-18T00:17:13.442Z,29.73
2017-10-18T00:19:41.695Z,40.57
2017-10-18T00:22:10.306Z,34.00
2017-10-18T00:24:38.564Z,30.03
2017-10-18T00:27:06.815Z,16.43
2017-10-18T00:29:35.855Z,22.90
2017-10-18T00:32:04.114Z,20.10
2017-10-18T00:34:32.371Z,18.83
2017-10-18T00:37:00.639Z,18.00
2017-10-18T00:39:29.802Z,17.73
2017-10-18T00:41:58.058Z,25.23
2017-10-18T00:44:26.622Z,35.47
2017-10-18T00:46:54.874Z,22.80
2017-10-18T00:49:23.889Z,20.30
2017-10-18T00:51:52.173Z,23.43
2017-10-18T00:54:20.422Z,41.03
2017-10-18T00:56:49.440Z,49.50
2017-10-18T00:59:17.715Z,29.07
2017-10-18T01:01:45.970Z,27.03
2017-10-18T01:04:14.984Z,42.93
2017-10-18T01:06:43.884Z,26.57
2017-10-18T01:09:12.136Z,79.83
2017-10-18T01:11:41.146Z,21.77
2017-10-18T01:14:09.423Z,33.13
2017-10-18T01:16:37.683Z,36.63
2017-10-18T01:19:06.705Z,46.83
2017-10-18T01:21:34.970Z,16.00
2017-10-18T01:24:03.227Z,25.13
2017-10-18T01:26:31.476Z,32.43
2017-10-18T01:29:00.230Z,16.67
2017-10-18T01:31:28.483Z,15.20
2017-10-18T01:33:56.743Z,18.50
2017-10-18T01:36:25.791Z,14.07
2017-10-18T01:38:54.045Z,14.50
2017-10-18T01:41:22.296Z,17.40
2017-10-18T01:43:50.575Z,14.77
2017-10-18T01:46:18.827Z,13.77
2017-10-18T01:48:47.079Z,11.87
2017-10-18T01:51:15.523Z,11.80
2017-10-18T01:53:43.774Z,12.00
2017-10-18T01:56:12.790Z,12.33
2017-10-18T01:58:41.070Z,15.27
2017-10-18T02:01:09.323Z,14.17
2017-10-18T02:03:38.338Z,17.63
2017-10-18T02:06:06.614Z,18.20
2017-10-18T02:08:35.399Z,20.50
2017-10-18T02:11:03.652Z,20.80
2017-10-18T02:13:32.285Z,20.03
2017-10-18T02:16:00.538Z,14.70
2017-10-18T02:18:28.795Z,14.80
2017-10-18T02:20:57.832Z,15.47
2017-10-18T02:23:26.082Z,13.60
2017-10-18T02:25:54.342Z,12.13
2017-10-18T02:28:23.381Z,13.00
2017-10-18T02:30:51.635Z,17.00
2017-10-18T02:33:19.891Z,29.33
2017-10-18T02:35:49.234Z,19.77
2017-10-18T02:38:17.499Z,46.30
2017-10-18T02:40:45.747Z,25.20
2017-10-18T02:43:14.792Z,32.67
2017-10-18T02:45:43.033Z,21.83
2017-10-18T02:48:11.286Z,28.30
2017-10-18T02:50:40.326Z,34.40
2017-10-18T02:53:08.580Z,70.70
2017-10-18T02:55:36.831Z,47.93
2017-10-18T02:58:05.957Z,42.33
2017-10-18T03:00:34.210Z,56.87
2017-10-18T03:03:03.230Z,53.10
2017-10-18T03:05:31.565Z,49.07
2017-10-18T03:08:00.595Z,57.80
2017-10-18T03:10:29.310Z,39.77
2017-10-18T03:12:57.582Z,34.40
2017-10-18T03:15:25.834Z,27.87
2017-10-18T03:17:54.095Z,32.90
2017-10-18T03:20:22.453Z,52.73
2017-10-18T03:22:50.706Z,64.03
2017-10-18T03:25:18.958Z,43.23
2017-10-18T03:27:47.234Z,36.67
2017-10-18T03:30:15.488Z,63.93
2017-10-18T03:32:43.739Z,33.03
2017-10-18T03:35:12.010Z,53.37
2017-10-18T03:37:40.506Z,49.50
2017-10-18T03:40:09.530Z,46.00
2017-10-18T03:42:38.235Z,44.60
2017-10-18T03:45:06.486Z,57.33
2017-10-18T03:47:34.741Z,75.27
2017-10-18T03:50:03.784Z,32.90
2017-10-18T03:52:32.030Z,36.33
2017-10-18T03:55:00.285Z,73.60
2017-10-18T03:57:28.561Z,70.07
2017-10-18T03:59:56.814Z,36.43
2017-10-18T04:02:25.062Z,71.83
2017-10-18T04:04:53.398Z,81.47
2017-10-18T04:07:22.418Z,71.57
2017-10-18T04:09:50.670Z,45.87
2017-10-18T04:12:19.994Z,16.87
2017-10-18T04:14:48.309Z,17.23
2017-10-18T04:17:16.703Z,17.30
2017-10-18T04:19:44.975Z,22.13
2017-10-18T04:22:13.226Z,15.80
2017-10-18T04:24:41.482Z,18.67
2017-10-18T04:27:10.239Z,14.23
2017-10-18T04:29:39.258Z,15.93
2017-10-18T04:32:07.506Z,15.27
2017-10-18T04:34:35.786Z,20.20
2017-10-18T04:37:04.811Z,15.10
2017-10-18T04:39:33.062Z,16.13
2017-10-18T04:42:02.145Z,15.10
2017-10-18T04:44:30.406Z,17.50
2017-10-18T04:46:58.670Z,14.83
2017-10-18T04:49:27.238Z,15.40
2017-10-18T04:51:55.487Z,25.10
2017-10-18T04:54:24.914Z,20.60
2017-10-18T04:56:53.196Z,19.13
2017-10-18T04:59:21.440Z,16.97
2017-10-18T05:01:49.686Z,15.73
2017-10-18T05:04:17.966Z,16.20
2017-10-18T05:06:46.220Z,19.13
2017-10-18T05:09:14.478Z,16.90
2017-10-18T05:11:43.862Z,19.00
2017-10-18T05:14:12.522Z,21.37
2017-10-18T05:16:41.678Z,20.97
2017-10-18T05:19:09.939Z,21.03
2017-10-18T05:21:38.194Z,16.77
2017-10-18T05:24:06.449Z,19.40
2017-10-18T05:26:35.491Z,32.40
2017-10-18T05:29:03.742Z,31.80
2017-10-18T05:31:31.999Z,19.47
2017-10-18T05:34:01.118Z,20.23
2017-10-18T05:36:29.367Z,24.93
2017-10-18T05:38:58.381Z,23.87
2017-10-18T05:41:26.658Z,19.67
2017-10-18T05:43:54.906Z,22.57
2017-10-18T05:46:23.926Z,18.63
2017-10-18T05:48:52.202Z,17.27
2017-10-18T05:51:20.459Z,17.13
2017-10-18T05:53:49.667Z,17.77
2017-10-18T05:56:18.997Z,19.93
2017-10-18T05:58:47.269Z,21.73
2017-10-18T06:01:15.514Z,18.97
2017-10-18T06:03:43.794Z,19.47
2017-10-18T06:06:12.820Z,17.90
2017-10-18T06:08:41.062Z,25.83
2017-10-18T06:11:10.103Z,19.63
2017-10-18T06:13:38.363Z,17.40
2017-10-18T06:16:06.919Z,17.93
2017-10-18T06:18:36.091Z,19.43
2017-10-18T06:21:04.350Z,16.10
2017-10-18T06:23:32.598Z,15.53
2017-10-18T06:26:00.869Z,16.93
2017-10-18T06:28:29.140Z,20.23
2017-10-18T06:30:57.382Z,21.70
2017-10-18T06:33:25.659Z,19.43
2017-10-18T06:35:53.906Z,19.20
2017-10-18T06:38:22.162Z,24.43
2017-10-18T06:40:50.518Z,16.93
2017-10-18T06:43:18.774Z,19.90
2017-10-18T06:45:47.811Z,24.03
2017-10-18T06:48:16.078Z,20.50
2017-10-18T06:50:44.330Z,20.77
2017-10-18T06:53:12.578Z,18.77
2017-10-18T06:55:40.859Z,25.67
2017-10-18T06:58:09.118Z,37.53
2017-10-18T07:00:37.362Z,37.87
2017-10-18T07:03:05.862Z,80.13
2017-10-18T07:05:34.109Z,32.53
2017-10-18T07:08:02.359Z,50.80
2017-10-18T07:10:31.438Z,20.57
2017-10-18T07:12:59.682Z,25.63
2017-10-18T07:15:27.985Z,18.90
2017-10-18T07:17:56.469Z,25.83
2017-10-18T07:20:24.713Z,29.83
2017-10-18T07:22:52.970Z,22.50
2017-10-18T07:25:21.582Z,22.40
2017-10-18T07:27:49.850Z,18.47
2017-10-18T07:30:18.910Z,17.73
2017-10-18T07:32:47.954Z,18.27
2017-10-18T07:35:16.204Z,21.93
2017-10-18T07:37:45.250Z,19.30
2017-10-18T07:40:13.529Z,22.63
2017-10-18T07:42:41.803Z,26.03
2017-10-18T07:45:10.062Z,21.37
2017-10-18T07:47:38.418Z,21.27
2017-10-18T07:50:06.683Z,25.20
2017-10-18T07:52:34.944Z,51.93
2017-10-18T07:55:03.210Z,40.07
2017-10-18T07:57:32.226Z,33.43
2017-10-18T08:00:00.543Z,29.53
2017-10-18T08:02:28.815Z,27.47
2017-10-18T08:04:57.066Z,24.17
2017-10-18T08:07:25.386Z,28.00
2017-10-18T08:09:53.950Z,35.20
2017-10-18T08:12:22.193Z,24.00
2017-10-18T08:14:50.442Z,23.83
2017-10-18T08:17:18.727Z,29.70
2017-10-18T08:19:48.026Z,22.30
2017-10-18T08:22:16.294Z,32.30
2017-10-18T08:24:44.570Z,32.40
2017-10-18T08:27:12.826Z,65.87
2017-10-18T08:29:41.082Z,25.97
2017-10-18T08:32:09.669Z,24.60
2017-10-18T08:34:37.918Z,24.87
2017-10-18T08:37:06.170Z,25.67
2017-10-18T08:39:34.465Z,22.23
2017-10-18T08:42:02.991Z,23.70
2017-10-18T08:44:31.218Z,28.97
2017-10-18T08:46:59.507Z,31.73
2017-10-18T08:49:27.754Z,25.17
2017-10-18T08:51:56.007Z,33.43
2017-10-18T08:54:24.762Z,48.83
2017-10-18T08:56:53.014Z,25.70
2017-10-18T08:59:21.266Z,36.30
2017-10-18T09:01:49.898Z,37.47
2017-10-18T09:04:18.150Z,35.90
2017-10-18T09:06:46.406Z,31.63
2017-10-18T09:09:14.682Z,29.93
2017-10-18T09:11:43.702Z,28.83
2017-10-18T09:14:11.983Z,31.07
2017-10-18T09:16:40.331Z,29.63
2017-10-18T09:19:08.582Z,39.57
2017-10-18T09:21:37.063Z,34.17
2017-10-18T09:24:05.347Z,33.17
2017-10-18T09:26:33.601Z,34.67
2017-10-18T09:29:01.875Z,34.47
2017-10-18T09:31:30.136Z,33.93
2017-10-18T09:33:58.394Z,37.87
2017-10-18T09:36:26.827Z,33.10
2017-10-18T09:38:55.579Z,38.73
2017-10-18T09:41:23.838Z,44.27
2017-10-18T09:43:52.078Z,32.83
2017-10-18T09:46:20.355Z,34.13
2017-10-18T09:48:48.598Z,34.33
2017-10-18T09:51:17.636Z,36.77
2017-10-18T09:53:45.907Z,36.83
2017-10-18T09:56:14.932Z,39.67
2017-10-18T09:58:43.187Z,38.60
2017-10-18T10:01:12.397Z,37.90
2017-10-18T10:03:41.473Z,42.53
2017-10-18T10:06:09.721Z,41.57
2017-10-18T10:08:37.995Z,39.77
2017-10-18T10:11:06.246Z,34.93
2017-10-18T10:13:34.495Z,35.60
2017-10-18T10:16:02.778Z,36.00
2017-10-18T10:18:31.031Z,42.57
2017-10-18T10:20:59.278Z,40.50
2017-10-18T10:23:28.263Z,34.30
2017-10-18T10:25:56.515Z,34.63
2017-10-18T10:28:24.771Z,58.97
2017-10-18T10:30:53.803Z,33.13
2017-10-18T10:33:22.054Z,34.50
2017-10-18T10:35:50.443Z,35.70
2017-10-18T10:38:18.739Z,32.60
2017-10-18T10:40:46.995Z,33.53
2017-10-18T10:43:15.255Z,30.50
2017-10-18T10:45:43.975Z,30.17
2017-10-18T10:48:12.240Z,33.53
2017-10-18T10:50:40.508Z,32.40
2017-10-18T10:53:08.789Z,34.03
2017-10-18T10:55:37.047Z,34.33
2017-10-18T10:58:05.319Z,34.60
2017-10-18T11:00:33.574Z,30.53
2017-10-18T11:03:01.829Z,31.27
2017-10-18T11:05:30.094Z,27.63
2017-10-18T11:07:58.771Z,26.23
2017-10-18T11:10:27.027Z,34.20
2017-10-18T11:12:55.279Z,28.60
2017-10-18T11:15:23.554Z,29.90
2017-10-18T11:17:52.570Z,27.03
2017-10-18T11:20:20.826Z,27.30
2017-10-18T11:22:49.110Z,26.57
2017-10-18T11:25:19.085Z,25.50
2017-10-18T11:27:47.327Z,27.63
2017-10-18T11:30:15.690Z,23.43
2017-10-18T11:32:44.714Z,24.93
2017-10-18T11:35:12.966Z,23.27
2017-10-18T11:37:41.285Z,24.30
2017-10-18T11:40:09.529Z,23.20
2017-10-18T11:42:37.782Z,24.67
2017-10-18T11:45:06.050Z,28.50
2017-10-18T11:47:34.310Z,31.50
2017-10-18T11:50:02.647Z,30.50
2017-10-18T11:52:31.447Z,27.27
2017-10-18T11:54:59.702Z,29.70
2017-10-18T11:57:28.015Z,23.63
2017-10-18T11:59:56.278Z,33.30
2017-10-18T12:02:24.530Z,26.33
2017-10-18T12:04:52.782Z,25.20
2017-10-18T12:07:21.821Z,26.90
2017-10-18T12:09:50.082Z,31.77
2017-10-18T12:12:18.348Z,25.13
2017-10-18T12:14:46.707Z,29.23
2017-10-18T12:17:14.967Z,23.20
2017-10-18T12:19:43.215Z,24.77
2017-10-18T12:22:11.498Z,28.10
2017-10-18T12:24:39.758Z,24.53
2017-10-18T12:27:08.442Z,21.60
2017-10-18T12:29:36.705Z,26.40
2017-10-18T12:32:04.957Z,27.97
2017-10-18T12:34:34.012Z,26.20
2017-10-18T12:37:03.495Z,28.60
2017-10-18T12:39:31.753Z,25.60
2017-10-18T12:42:00.003Z,25.40
2017-10-18T12:44:28.310Z,30.37
2017-10-18T12:46:56.566Z,24.83
2017-10-18T12:49:24.857Z,22.17
2017-10-18T12:51:53.962Z,25.40
2017-10-18T12:54:22.218Z,28.23
2017-10-18T12:56:51.239Z,22.30
2017-10-18T12:59:19.826Z,22.53
2017-10-18T13:01:48.098Z,27.33
2017-10-18T13:04:16.404Z,27.67
2017-10-18T13:06:44.727Z,34.53
2017-10-18T13:09:13.730Z,20.50
2017-10-18T13:11:41.988Z,20.30
2017-10-18T13:14:11.033Z,20.57
2017-10-18T13:16:39.298Z,19.00
2017-10-18T13:19:07.538Z,21.67
2017-10-18T13:21:36.782Z,16.33
2017-10-18T13:24:05.039Z,23.17
2017-10-18T13:26:33.463Z,28.13
2017-10-18T13:29:01.867Z,24.40
2017-10-18T13:31:30.891Z,28.80
2017-10-18T13:33:59.147Z,20.53
2017-10-18T13:36:27.433Z,18.07
2017-10-18T13:38:56.439Z,20.53
2017-10-18T13:41:24.690Z,25.37
2017-10-18T13:43:53.856Z,20.83
2017-10-18T13:46:22.106Z,17.33
2017-10-18T13:48:50.396Z,15.87
2017-10-18T13:51:18.671Z,20.47
2017-10-18T13:53:46.922Z,23.47
2017-10-18T13:56:15.172Z,20.33
2017-10-18T13:58:43.451Z,16.50
2017-10-18T14:01:12.467Z,24.50
2017-10-18T14:03:40.730Z,16.57
2017-10-18T14:06:09.267Z,31.13
2017-10-18T14:08:37.522Z,13.97
2017-10-18T14:11:05.779Z,16.13
2017-10-18T14:13:34.055Z,20.60
2017-10-18T14:16:03.079Z,16.07
2017-10-18T14:18:31.328Z,14.73
2017-10-18T14:20:59.601Z,21.03
2017-10-18T14:23:27.854Z,17.60
2017-10-18T14:25:56.877Z,18.00
2017-10-18T14:28:25.286Z,13.60
2017-10-18T14:30:54.087Z,17.70
2017-10-18T14:33:22.359Z,19.13
2017-10-18T14:35:50.683Z,19.10
2017-10-18T14:38:18.977Z,19.43
2017-10-18T14:40:47.230Z,12.57
2017-10-18T14:43:15.512Z,15.33
2017-10-18T14:45:43.758Z,18.60
2017-10-18T14:48:12.031Z,26.80
2017-10-18T14:50:40.580Z,28.57
2017-10-18T14:53:08.835Z,19.23
2017-10-18T14:55:37.082Z,13.17
2017-10-18T14:58:06.122Z,11.03
2017-10-18T15:00:34.391Z,18.70
2017-10-18T15:03:02.642Z,21.30
2017-10-18T15:05:30.920Z,15.73
2017-10-18T15:07:59.166Z,22.20
2017-10-18T15:10:27.418Z,15.00
2017-10-18T15:12:56.046Z,14.97
2017-10-18T15:15:25.064Z,13.33
2017-10-18T15:17:53.315Z,19.07
2017-10-18T15:20:22.361Z,15.27
2017-10-18T15:22:50.730Z,24.97
2017-10-18T15:25:18.986Z,17.63
2017-10-18T15:27:47.270Z,25.93
2017-10-18T15:30:15.685Z,23.97
2017-10-18T15:32:44.225Z,25.77
2017-10-18T15:35:12.938Z,18.40
2017-10-18T15:37:41.202Z,20.20
2017-10-18T15:40:09.455Z,13.87
2017-10-18T15:42:37.819Z,23.33
2017-10-18T15:45:06.130Z,27.63
2017-10-18T15:47:34.374Z,21.67
2017-10-18T15:50:03.336Z,19.17
2017-10-18T15:52:33.682Z,20.30
2017-10-18T15:55:01.939Z,26.60
2017-10-18T15:57:30.384Z,24.73
2017-10-18T15:59:58.638Z,22.10
2017-10-18T16:02:26.897Z,23.43
2017-10-18T16:04:55.191Z,20.60
2017-10-18T16:07:23.441Z,25.97
2017-10-18T16:09:51.694Z,26.80
2017-10-18T16:12:20.035Z,26.40
2017-10-18T16:14:48.286Z,24.80
2017-10-18T16:17:16.539Z,23.33
2017-10-18T16:19:44.878Z,28.43
2017-10-18T16:22:13.195Z,31.20
2017-10-18T16:24:41.429Z,31.00
2017-10-18T16:27:09.741Z,39.03
2017-10-18T16:29:38.155Z,30.30
2017-10-18T16:32:07.457Z,32.47
2017-10-18T16:34:36.518Z,34.03
2017-10-18T16:37:04.772Z,37.07
2017-10-18T16:39:33.067Z,34.43
2017-10-18T16:42:01.388Z,41.60
2017-10-18T16:44:29.653Z,54.67
2017-10-18T16:46:58.674Z,59.10
2017-10-18T16:49:26.970Z,55.70
2017-10-18T16:51:55.386Z,34.50
2017-10-18T16:54:23.639Z,32.77
2017-10-18T16:56:52.222Z,40.30
2017-10-18T16:59:20.479Z,40.30
2017-10-18T17:01:48.726Z,31.87
2017-10-18T17:04:17.375Z,33.17
2017-10-18T17:06:45.745Z,34.40
2017-10-18T17:09:14.112Z,32.07
2017-10-18T17:11:42.486Z,32.83
2017-10-18T17:14:10.755Z,32.70
2017-10-18T17:16:39.068Z,23.57
2017-10-18T17:19:07.337Z,30.90
2017-10-18T17:21:35.590Z,31.73
2017-10-18T17:24:03.855Z,22.63
2017-10-18T17:26:32.207Z,22.23
2017-10-18T17:29:00.471Z,28.13
2017-10-18T17:31:28.723Z,25.30
2017-10-18T17:33:57.300Z,30.23
2017-10-18T17:36:25.559Z,31.53
2017-10-18T17:38:53.852Z,33.93
2017-10-18T17:41:22.131Z,26.70
2017-10-18T17:43:50.393Z,29.60
2017-10-18T17:46:18.644Z,28.90
2017-10-18T17:48:47.458Z,32.00
2017-10-18T17:51:15.714Z,34.60
2017-10-18T17:53:43.979Z,30.43
2017-10-18T17:56:13.030Z,28.10
2017-10-18T17:58:41.282Z,34.10
2017-10-18T18:01:09.538Z,25.27
2017-10-18T18:03:37.823Z,24.03
2017-10-18T18:06:06.146Z,23.90
2017-10-18T18:08:34.422Z,32.87
2017-10-18T18:11:02.838Z,25.53
2017-10-18T18:13:31.110Z,34.80
2017-10-18T18:15:59.364Z,28.80
2017-10-18T18:18:27.634Z,29.57
2017-10-18T18:20:55.949Z,29.30
2017-10-18T18:23:24.330Z,36.50
2017-10-18T18:25:52.606Z,31.10
2017-10-18T18:28:20.996Z,35.53
2017-10-18T18:30:49.326Z,37.80
2017-10-18T18:33:17.651Z,32.03
2017-10-18T18:35:46.084Z,29.23
2017-10-18T18:38:14.335Z,28.80
2017-10-18T18:40:42.730Z,30.97
2017-10-18T18:43:10.966Z,31.17
2017-10-18T18:45:39.218Z,28.43
2017-10-18T18:48:07.503Z,39.90
2017-10-18T18:50:35.758Z,38.17
2017-10-18T18:53:04.010Z,40.10
2017-10-18T18:55:32.385Z,34.53
2017-10-18T18:58:01.807Z,40.13
2017-10-18T19:00:30.074Z,35.73
2017-10-18T19:02:58.351Z,41.50
2017-10-18T19:05:26.604Z,35.63
2017-10-18T19:07:54.878Z,36.37
2017-10-18T19:10:23.257Z,40.53
2017-10-18T19:12:51.519Z,33.03
2017-10-18T19:15:20.759Z,38.90
2017-10-18T19:17:49.103Z,41.37
2017-10-18T19:20:17.364Z,35.27
2017-10-18T19:22:45.626Z,36.73
2017-10-18T19:25:14.655Z,29.43
2017-10-18T19:27:42.916Z,31.83
2017-10-18T19:30:11.353Z,34.43
2017-10-18T19:32:39.634Z,45.10
2017-10-18T19:35:08.062Z,35.23
2017-10-18T19:37:36.311Z,38.33
2017-10-18T19:40:04.655Z,33.00
2017-10-18T19:42:32.912Z,29.47
2017-10-18T19:45:01.158Z,34.30
2017-10-18T19:47:29.444Z,26.07
2017-10-18T19:49:57.694Z,22.77
2017-10-18T19:52:25.948Z,27.57
2017-10-18T19:54:54.226Z,26.27
2017-10-18T19:57:22.489Z,27.40
2017-10-18T19:59:50.749Z,21.37
2017-10-18T20:02:19.087Z,30.03
2017-10-18T20:04:47.343Z,21.27
2017-10-18T20:07:16.367Z,21.43
2017-10-18T20:09:44.646Z,25.33
2017-10-18T20:12:12.903Z,27.83
2017-10-18T20:14:41.918Z,21.03
2017-10-18T20:17:10.210Z,22.23
2017-10-18T20:19:38.456Z,24.07
2017-10-18T20:22:07.866Z,23.87
2017-10-18T20:24:36.285Z,27.70
2017-10-18T20:27:04.543Z,21.40
2017-10-18T20:29:32.800Z,25.70
2017-10-18T20:32:01.074Z,20.10
2017-10-18T20:34:29.345Z,19.30
2017-10-18T20:36:57.922Z,18.83
2017-10-18T20:39:26.958Z,25.83
2017-10-18T20:41:55.223Z,18.03
2017-10-18T20:44:23.470Z,20.30
2017-10-18T20:46:52.406Z,24.23
2017-10-18T20:49:20.668Z,19.77
2017-10-18T20:51:48.915Z,19.20
2017-10-18T20:54:17.964Z,23.50
2017-10-18T20:56:46.211Z,18.47
2017-10-18T20:59:14.463Z,23.67
2017-10-18T21:01:42.738Z,23.80
2017-10-18T21:04:10.986Z,20.80
2017-10-18T21:06:39.260Z,31.90
2017-10-18T21:09:07.818Z,26.13
2017-10-18T21:11:36.071Z,27.77
2017-10-18T21:14:04.339Z,25.27
2017-10-18T21:16:32.603Z,28.30
2017-10-18T21:19:01.626Z,34.63
2017-10-18T21:21:29.893Z,23.80
2017-10-18T21:23:58.176Z,31.63
2017-10-18T21:26:26.430Z,25.53
2017-10-18T21:28:55.446Z,35.83
2017-10-18T21:31:23.830Z,24.53
2017-10-18T21:33:52.085Z,25.40
2017-10-18T21:36:20.335Z,32.17
2017-10-18T21:38:48.962Z,23.07
2017-10-18T21:41:17.339Z,23.43
2017-10-18T21:43:45.663Z,28.20
2017-10-18T21:46:13.938Z,38.50
2017-10-18T21:48:42.204Z,37.20
2017-10-18T21:51:10.446Z,36.20
2017-10-18T21:53:38.946Z,34.33
2017-10-18T21:56:07.202Z,38.03
2017-10-18T21:58:35.458Z,37.33
2017-10-18T22:01:03.734Z,34.53
2017-10-18T22:03:32.754Z,30.73
2017-10-18T22:06:01.002Z,37.20
2017-10-18T22:08:29.283Z,32.10
2017-10-18T22:10:58.750Z,32.10
2017-10-18T22:13:27.003Z,27.87
2017-10-18T22:15:55.346Z,28.63
2017-10-18T22:18:23.604Z,23.90
2017-10-18T22:20:51.962Z,25.40
2017-10-18T22:23:20.242Z,26.73
2017-10-18T22:25:48.494Z,25.23
2017-10-18T22:28:16.755Z,25.13
2017-10-18T22:30:45.094Z,24.30
2017-10-18T22:33:14.218Z,26.43
2017-10-18T22:35:42.470Z,23.40
2017-10-18T22:38:10.823Z,27.37
2017-10-18T22:40:39.448Z,24.50
2017-10-18T22:43:07.742Z,24.50
2017-10-18T22:45:36.017Z,25.80
2017-10-18T22:48:04.270Z,31.03
2017-10-18T22:50:32.518Z,22.10
2017-10-18T22:53:00.798Z,24.60
2017-10-18T22:55:29.053Z,24.43
2017-10-18T22:57:57.345Z,22.63
2017-10-18T23:00:25.911Z,24.70
2017-10-18T23:02:54.923Z,25.00
2017-10-18T23:05:23.261Z,27.77
2017-10-18T23:07:51.526Z,24.27
2017-10-18T23:10:19.811Z,29.23
2017-10-18T23:12:48.059Z,30.70
2017-10-18T23:15:17.113Z,29.40
2017-10-18T23:17:45.391Z,36.37
2017-10-18T23:20:13.686Z,45.83
2017-10-18T23:22:42.035Z,39.13
2017-10-18T23:25:10.278Z,43.03
2017-10-18T23:27:38.674Z,63.03
2017-10-18T23:30:08.143Z,55.23
2017-10-18T23:32:37.166Z,65.37
2017-10-18T23:35:05.458Z,52.73
2017-10-18T23:37:34.057Z,52.60
2017-10-18T23:40:02.302Z,55.33
2017-10-18T23:42:30.961Z,47.17
2017-10-18T23:45:00.198Z,40.10
2017-10-18T23:47:28.451Z,40.20
2017-10-18T23:49:56.699Z,50.60
2017-10-18T23:52:30.542Z,45.57
2017-10-18T23:54:58.859Z,43.30
2017-10-18T23:57:27.090Z,47.67
2017-10-18T23:59:55.374Z,30.50
